sensor_id;sensor_type;location;lat;lon;timestamp;temperature;humidity
39777;DHT22;25453;48.162;14.510;2024-02-26T00:00:25;5.70;72.80
39777;DHT22;25453;48.162;14.510;2024-02-26T00:02:52;5.70;72.90
39777;DHT22;25453;48.162;14.510;2024-02-26T00:05:19;5.70;73.00
39777;DHT22;25453;48.162;14.510;2024-02-26T00:07:46;5.70;73.10
39777;DHT22;25453;48.162;14.510;2024-02-26T00:10:14;5.70;73.00
39777;DHT22;25453;48.162;14.510;2024-02-26T00:12:41;5.70;73.10
39777;DHT22;25453;48.162;14.510;2024-02-26T00:15:09;5.70;73.20
39777;DHT22;25453;48.162;14.510;2024-02-26T00:17:37;5.70;73.30
39777;DHT22;25453;48.162;14.510;2024-02-26T00:20:07;5.70;73.50
39777;DHT22;25453;48.162;14.510;2024-02-26T00:22:37;5.70;73.70
39777;DHT22;25453;48.162;14.510;2024-02-26T00:25:05;5.80;74.10
39777;DHT22;25453;48.162;14.510;2024-02-26T00:27:32;5.90;74.20
39777;DHT22;25453;48.162;14.510;2024-02-26T00:29:59;5.90;73.80
39777;DHT22;25453;48.162;14.510;2024-02-26T00:32:27;5.90;73.70
39777;DHT22;25453;48.162;14.510;2024-02-26T00:34:55;5.90;73.80
39777;DHT22;25453;48.162;14.510;2024-02-26T00:37:23;5.90;73.60
39777;DHT22;25453;48.162;14.510;2024-02-26T00:39:50;5.90;73.50
39777;DHT22;25453;48.162;14.510;2024-02-26T00:42:17;5.80;73.50
39777;DHT22;25453;48.162;14.510;2024-02-26T00:44:44;5.80;73.50
39777;DHT22;25453;48.162;14.510;2024-02-26T00:47:12;5.70;73.50
39777;DHT22;25453;48.162;14.510;2024-02-26T00:49:39;5.70;73.60
39777;DHT22;25453;48.162;14.510;2024-02-26T00:52:06;5.70;73.60
39777;DHT22;25453;48.162;14.510;2024-02-26T00:54:33;5.70;73.70
39777;DHT22;25453;48.162;14.510;2024-02-26T00:57:00;5.60;73.60
39777;DHT22;25453;48.162;14.510;2024-02-26T00:59:27;5.60;73.70
39777;DHT22;25453;48.162;14.510;2024-02-26T01:01:55;5.60;74.10
39777;DHT22;25453;48.162;14.510;2024-02-26T01:04:22;5.70;74.30
39777;DHT22;25453;48.162;14.510;2024-02-26T01:06:49;5.80;74.10
39777;DHT22;25453;48.162;14.510;2024-02-26T01:09:16;5.80;73.80
39777;DHT22;25453;48.162;14.510;2024-02-26T01:11:45;5.80;73.70
39777;DHT22;25453;48.162;14.510;2024-02-26T01:14:12;5.80;73.40
39777;DHT22;25453;48.162;14.510;2024-02-26T01:16:39;5.80;73.30
39777;DHT22;25453;48.162;14.510;2024-02-26T01:19:06;5.80;73.40
39777;DHT22;25453;48.162;14.510;2024-02-26T01:21:34;5.90;73.50
39777;DHT22;25453;48.162;14.510;2024-02-26T01:24:01;5.90;73.10
39777;DHT22;25453;48.162;14.510;2024-02-26T01:26:28;5.80;72.90
39777;DHT22;25453;48.162;14.510;2024-02-26T01:28:55;5.80;72.80
39777;DHT22;25453;48.162;14.510;2024-02-26T01:31:23;5.70;72.80
39777;DHT22;25453;48.162;14.510;2024-02-26T01:33:50;5.70;72.80
39777;DHT22;25453;48.162;14.510;2024-02-26T01:36:17;5.60;72.50
39777;DHT22;25453;48.162;14.510;2024-02-26T01:38:44;5.60;72.70
39777;DHT22;25453;48.162;14.510;2024-02-26T01:41:13;5.60;73.00
39777;DHT22;25453;48.162;14.510;2024-02-26T01:43:41;5.70;73.10
39777;DHT22;25453;48.162;14.510;2024-02-26T01:46:13;5.70;73.00
39777;DHT22;25453;48.162;14.510;2024-02-26T01:48:42;5.70;72.80
39777;DHT22;25453;48.162;14.510;2024-02-26T01:51:11;5.70;72.80
39777;DHT22;25453;48.162;14.510;2024-02-26T01:53:39;5.70;72.60
39777;DHT22;25453;48.162;14.510;2024-02-26T01:56:07;5.70;72.50
39777;DHT22;25453;48.162;14.510;2024-02-26T01:58:35;5.70;72.50
39777;DHT22;25453;48.162;14.510;2024-02-26T02:01:03;5.80;72.50
39777;DHT22;25453;48.162;14.510;2024-02-26T02:03:30;5.80;72.20
39777;DHT22;25453;48.162;14.510;2024-02-26T02:05:58;5.70;71.70
39777;DHT22;25453;48.162;14.510;2024-02-26T02:08:25;5.60;71.50
39777;DHT22;25453;48.162;14.510;2024-02-26T02:10:54;5.50;71.60
39777;DHT22;25453;48.162;14.510;2024-02-26T02:13:21;5.50;71.60
39777;DHT22;25453;48.162;14.510;2024-02-26T02:15:48;5.40;71.60
39777;DHT22;25453;48.162;14.510;2024-02-26T02:18:15;5.40;71.60
39777;DHT22;25453;48.162;14.510;2024-02-26T02:20:43;5.30;71.50
39777;DHT22;25453;48.162;14.510;2024-02-26T02:23:10;5.30;71.70
39777;DHT22;25453;48.162;14.510;2024-02-26T02:25:38;5.30;71.80
39777;DHT22;25453;48.162;14.510;2024-02-26T02:28:06;5.30;71.90
39777;DHT22;25453;48.162;14.510;2024-02-26T02:30:33;5.40;71.90
39777;DHT22;25453;48.162;14.510;2024-02-26T02:33:09;5.30;71.60
39777;DHT22;25453;48.162;14.510;2024-02-26T02:35:38;5.30;71.40
39777;DHT22;25453;48.162;14.510;2024-02-26T02:38:06;5.20;71.40
39777;DHT22;25453;48.162;14.510;2024-02-26T02:40:33;5.20;71.60
39777;DHT22;25453;48.162;14.510;2024-02-26T02:43:01;5.20;71.80
39777;DHT22;25453;48.162;14.510;2024-02-26T02:45:29;5.10;71.70
39777;DHT22;25453;48.162;14.510;2024-02-26T02:47:56;5.10;71.60
39777;DHT22;25453;48.162;14.510;2024-02-26T02:50:24;5.10;71.60
39777;DHT22;25453;48.162;14.510;2024-02-26T02:52:51;5.10;71.70
39777;DHT22;25453;48.162;14.510;2024-02-26T02:55:18;5.00;71.70
39777;DHT22;25453;48.162;14.510;2024-02-26T02:57:45;5.00;71.80
39777;DHT22;25453;48.162;14.510;2024-02-26T03:00:13;5.00;71.80
39777;DHT22;25453;48.162;14.510;2024-02-26T03:02:40;5.00;71.70
39777;DHT22;25453;48.162;14.510;2024-02-26T03:05:08;5.00;71.80
39777;DHT22;25453;48.162;14.510;2024-02-26T03:07:36;5.00;72.20
39777;DHT22;25453;48.162;14.510;2024-02-26T03:10:03;5.10;72.40
39777;DHT22;25453;48.162;14.510;2024-02-26T03:12:30;5.10;72.40
39777;DHT22;25453;48.162;14.510;2024-02-26T03:14:58;5.10;71.90
39777;DHT22;25453;48.162;14.510;2024-02-26T03:17:31;5.10;71.70
39777;DHT22;25453;48.162;14.510;2024-02-26T03:19:58;5.10;71.50
39777;DHT22;25453;48.162;14.510;2024-02-26T03:22:26;5.00;71.40
39777;DHT22;25453;48.162;14.510;2024-02-26T03:24:53;5.00;71.60
39777;DHT22;25453;48.162;14.510;2024-02-26T03:27:20;4.90;71.50
39777;DHT22;25453;48.162;14.510;2024-02-26T03:29:47;4.90;71.40
39777;DHT22;25453;48.162;14.510;2024-02-26T03:32:15;4.80;71.40
39777;DHT22;25453;48.162;14.510;2024-02-26T03:34:42;4.80;71.50
39777;DHT22;25453;48.162;14.510;2024-02-26T03:37:09;4.80;71.70
39777;DHT22;25453;48.162;14.510;2024-02-26T03:39:37;4.80;71.80
39777;DHT22;25453;48.162;14.510;2024-02-26T03:42:05;4.90;71.70
39777;DHT22;25453;48.162;14.510;2024-02-26T03:44:32;4.90;71.60
39777;DHT22;25453;48.162;14.510;2024-02-26T03:46:59;4.90;71.30
39777;DHT22;25453;48.162;14.510;2024-02-26T03:49:26;4.90;71.30
39777;DHT22;25453;48.162;14.510;2024-02-26T03:51:54;4.80;71.30
39777;DHT22;25453;48.162;14.510;2024-02-26T03:54:21;4.70;71.10
39777;DHT22;25453;48.162;14.510;2024-02-26T03:56:49;4.70;71.10
39777;DHT22;25453;48.162;14.510;2024-02-26T03:59:16;4.70;71.20
39777;DHT22;25453;48.162;14.510;2024-02-26T04:01:47;4.70;71.20
39777;DHT22;25453;48.162;14.510;2024-02-26T04:04:14;4.60;71.20
39777;DHT22;25453;48.162;14.510;2024-02-26T04:06:45;4.60;71.20
39777;DHT22;25453;48.162;14.510;2024-02-26T04:09:14;4.60;71.30
39777;DHT22;25453;48.162;14.510;2024-02-26T04:11:42;4.50;71.30
39777;DHT22;25453;48.162;14.510;2024-02-26T04:14:12;4.60;71.70
39777;DHT22;25453;48.162;14.510;2024-02-26T04:16:39;4.60;71.60
39777;DHT22;25453;48.162;14.510;2024-02-26T04:19:07;4.60;71.40
39777;DHT22;25453;48.162;14.510;2024-02-26T04:21:35;4.60;71.30
39777;DHT22;25453;48.162;14.510;2024-02-26T04:24:02;4.50;71.00
39777;DHT22;25453;48.162;14.510;2024-02-26T04:26:30;4.50;71.20
39777;DHT22;25453;48.162;14.510;2024-02-26T04:28:57;4.50;71.20
39777;DHT22;25453;48.162;14.510;2024-02-26T04:31:25;4.40;71.00
39777;DHT22;25453;48.162;14.510;2024-02-26T04:33:53;4.40;71.20
39777;DHT22;25453;48.162;14.510;2024-02-26T04:36:20;4.40;71.20
39777;DHT22;25453;48.162;14.510;2024-02-26T04:38:48;4.40;71.30
39777;DHT22;25453;48.162;14.510;2024-02-26T04:41:15;4.40;71.10
39777;DHT22;25453;48.162;14.510;2024-02-26T04:43:43;4.40;71.20
39777;DHT22;25453;48.162;14.510;2024-02-26T04:46:10;4.40;71.30
39777;DHT22;25453;48.162;14.510;2024-02-26T04:48:38;4.40;71.40
39777;DHT22;25453;48.162;14.510;2024-02-26T04:51:06;4.40;71.70
39777;DHT22;25453;48.162;14.510;2024-02-26T04:53:33;4.50;71.60
39777;DHT22;25453;48.162;14.510;2024-02-26T04:56:00;4.50;71.30
39777;DHT22;25453;48.162;14.510;2024-02-26T04:58:27;4.50;71.40
39777;DHT22;25453;48.162;14.510;2024-02-26T05:00:55;4.60;71.80
39777;DHT22;25453;48.162;14.510;2024-02-26T05:03:22;4.70;71.70
39777;DHT22;25453;48.162;14.510;2024-02-26T05:05:50;4.70;71.50
39777;DHT22;25453;48.162;14.510;2024-02-26T05:08:17;4.70;71.10
39777;DHT22;25453;48.162;14.510;2024-02-26T05:10:48;4.70;70.90
39777;DHT22;25453;48.162;14.510;2024-02-26T05:13:15;4.70;70.60
39777;DHT22;25453;48.162;14.510;2024-02-26T05:15:45;4.60;70.40
39777;DHT22;25453;48.162;14.510;2024-02-26T05:18:15;4.50;70.40
39777;DHT22;25453;48.162;14.510;2024-02-26T05:20:43;4.40;70.60
39777;DHT22;25453;48.162;14.510;2024-02-26T05:23:10;4.40;70.60
39777;DHT22;25453;48.162;14.510;2024-02-26T05:25:37;4.40;70.90
39777;DHT22;25453;48.162;14.510;2024-02-26T05:28:04;4.40;71.00
39777;DHT22;25453;48.162;14.510;2024-02-26T05:30:31;4.40;71.10
39777;DHT22;25453;48.162;14.510;2024-02-26T05:32:59;4.40;71.10
39777;DHT22;25453;48.162;14.510;2024-02-26T05:35:26;4.40;71.30
39777;DHT22;25453;48.162;14.510;2024-02-26T05:37:53;4.50;71.20
39777;DHT22;25453;48.162;14.510;2024-02-26T05:40:20;4.50;71.40
39777;DHT22;25453;48.162;14.510;2024-02-26T05:42:48;4.60;71.40
39777;DHT22;25453;48.162;14.510;2024-02-26T05:45:16;4.70;70.80
39777;DHT22;25453;48.162;14.510;2024-02-26T05:47:43;4.60;70.40
39777;DHT22;25453;48.162;14.510;2024-02-26T05:50:11;4.50;70.10
39777;DHT22;25453;48.162;14.510;2024-02-26T05:52:40;4.40;70.00
39777;DHT22;25453;48.162;14.510;2024-02-26T05:55:08;4.40;70.10
39777;DHT22;25453;48.162;14.510;2024-02-26T05:57:36;4.40;70.30
39777;DHT22;25453;48.162;14.510;2024-02-26T06:00:03;4.30;70.30
39777;DHT22;25453;48.162;14.510;2024-02-26T06:02:31;4.30;70.20
39777;DHT22;25453;48.162;14.510;2024-02-26T06:04:58;4.30;70.20
39777;DHT22;25453;48.162;14.510;2024-02-26T06:07:26;4.30;70.30
39777;DHT22;25453;48.162;14.510;2024-02-26T06:09:53;4.30;70.60
39777;DHT22;25453;48.162;14.510;2024-02-26T06:12:21;4.30;70.80
39777;DHT22;25453;48.162;14.510;2024-02-26T06:14:49;4.30;70.70
39777;DHT22;25453;48.162;14.510;2024-02-26T06:17:16;4.30;70.80
39777;DHT22;25453;48.162;14.510;2024-02-26T06:19:43;4.40;71.00
39777;DHT22;25453;48.162;14.510;2024-02-26T06:22:11;4.40;70.90
39777;DHT22;25453;48.162;14.510;2024-02-26T06:24:38;4.50;70.90
39777;DHT22;25453;48.162;14.510;2024-02-26T06:27:05;4.60;70.90
39777;DHT22;25453;48.162;14.510;2024-02-26T06:29:32;4.60;70.70
39777;DHT22;25453;48.162;14.510;2024-02-26T06:32:00;4.60;70.60
39777;DHT22;25453;48.162;14.510;2024-02-26T06:34:27;4.60;70.50
39777;DHT22;25453;48.162;14.510;2024-02-26T06:36:54;4.60;70.80
39777;DHT22;25453;48.162;14.510;2024-02-26T06:39:21;4.60;70.80
39777;DHT22;25453;48.162;14.510;2024-02-26T06:41:49;4.60;70.80
39777;DHT22;25453;48.162;14.510;2024-02-26T06:44:16;4.70;70.90
39777;DHT22;25453;48.162;14.510;2024-02-26T06:46:43;4.70;70.70
39777;DHT22;25453;48.162;14.510;2024-02-26T06:49:10;4.70;70.60
39777;DHT22;25453;48.162;14.510;2024-02-26T06:51:38;4.70;70.70
39777;DHT22;25453;48.162;14.510;2024-02-26T06:54:05;4.70;70.80
39777;DHT22;25453;48.162;14.510;2024-02-26T06:56:32;4.70;70.80
39777;DHT22;25453;48.162;14.510;2024-02-26T06:58:59;4.70;70.90
39777;DHT22;25453;48.162;14.510;2024-02-26T07:01:26;4.70;71.00
39777;DHT22;25453;48.162;14.510;2024-02-26T07:03:54;4.70;71.10
39777;DHT22;25453;48.162;14.510;2024-02-26T07:06:21;4.70;71.30
39777;DHT22;25453;48.162;14.510;2024-02-26T07:08:49;4.80;71.40
39777;DHT22;25453;48.162;14.510;2024-02-26T07:11:16;4.90;71.50
39777;DHT22;25453;48.162;14.510;2024-02-26T07:13:43;4.90;71.40
39777;DHT22;25453;48.162;14.510;2024-02-26T07:16:10;5.00;71.30
39777;DHT22;25453;48.162;14.510;2024-02-26T07:18:39;5.00;71.30
39777;DHT22;25453;48.162;14.510;2024-02-26T07:21:06;5.10;71.20
39777;DHT22;25453;48.162;14.510;2024-02-26T07:23:34;5.10;71.10
39777;DHT22;25453;48.162;14.510;2024-02-26T07:26:01;5.10;71.00
39777;DHT22;25453;48.162;14.510;2024-02-26T07:28:28;5.10;70.70
39777;DHT22;25453;48.162;14.510;2024-02-26T07:30:56;5.10;70.90
39777;DHT22;25453;48.162;14.510;2024-02-26T07:33:23;5.20;70.60
39777;DHT22;25453;48.162;14.510;2024-02-26T07:35:50;5.10;70.40
39777;DHT22;25453;48.162;14.510;2024-02-26T07:38:17;5.00;70.50
39777;DHT22;25453;48.162;14.510;2024-02-26T07:40:58;5.00;70.80
39777;DHT22;25453;48.162;14.510;2024-02-26T07:43:29;5.00;71.00
39777;DHT22;25453;48.162;14.510;2024-02-26T07:45:57;5.00;71.10
39777;DHT22;25453;48.162;14.510;2024-02-26T07:48:25;5.10;71.20
39777;DHT22;25453;48.162;14.510;2024-02-26T07:50:52;5.10;71.20
39777;DHT22;25453;48.162;14.510;2024-02-26T07:53:20;5.10;71.20
39777;DHT22;25453;48.162;14.510;2024-02-26T07:55:47;5.20;71.60
39777;DHT22;25453;48.162;14.510;2024-02-26T07:58:14;5.30;71.80
39777;DHT22;25453;48.162;14.510;2024-02-26T08:00:41;5.30;71.60
39777;DHT22;25453;48.162;14.510;2024-02-26T08:03:08;5.30;71.40
39777;DHT22;25453;48.162;14.510;2024-02-26T08:05:36;5.40;71.60
39777;DHT22;25453;48.162;14.510;2024-02-26T08:08:07;5.50;71.70
39777;DHT22;25453;48.162;14.510;2024-02-26T08:10:35;5.50;71.80
39777;DHT22;25453;48.162;14.510;2024-02-26T08:13:02;5.60;71.60
39777;DHT22;25453;48.162;14.510;2024-02-26T08:15:32;5.60;71.50
39777;DHT22;25453;48.162;14.510;2024-02-26T08:18:05;5.70;71.20
39777;DHT22;25453;48.162;14.510;2024-02-26T08:20:32;5.60;71.00
39777;DHT22;25453;48.162;14.510;2024-02-26T08:22:59;5.60;71.00
39777;DHT22;25453;48.162;14.510;2024-02-26T08:25:27;5.60;71.20
39777;DHT22;25453;48.162;14.510;2024-02-26T08:27:54;5.60;71.40
39777;DHT22;25453;48.162;14.510;2024-02-26T08:30:21;5.70;71.60
39777;DHT22;25453;48.162;14.510;2024-02-26T08:32:49;5.70;71.70
39777;DHT22;25453;48.162;14.510;2024-02-26T08:35:19;5.80;71.60
39777;DHT22;25453;48.162;14.510;2024-02-26T08:37:47;5.90;71.60
39777;DHT22;25453;48.162;14.510;2024-02-26T08:40:15;6.00;71.60
39777;DHT22;25453;48.162;14.510;2024-02-26T08:42:42;6.00;71.50
39777;DHT22;25453;48.162;14.510;2024-02-26T08:45:10;6.10;71.30
39777;DHT22;25453;48.162;14.510;2024-02-26T08:47:39;6.10;71.40
39777;DHT22;25453;48.162;14.510;2024-02-26T08:50:07;6.10;71.40
39777;DHT22;25453;48.162;14.510;2024-02-26T08:52:36;6.20;71.40
39777;DHT22;25453;48.162;14.510;2024-02-26T08:55:04;6.20;71.30
39777;DHT22;25453;48.162;14.510;2024-02-26T08:57:32;6.20;71.40
39777;DHT22;25453;48.162;14.510;2024-02-26T09:00:01;6.30;71.50
39777;DHT22;25453;48.162;14.510;2024-02-26T09:02:28;6.30;71.60
39777;DHT22;25453;48.162;14.510;2024-02-26T09:04:56;6.40;71.50
39777;DHT22;25453;48.162;14.510;2024-02-26T09:07:24;6.40;71.60
39777;DHT22;25453;48.162;14.510;2024-02-26T09:09:51;6.50;71.80
39777;DHT22;25453;48.162;14.510;2024-02-26T09:12:18;6.60;71.70
39777;DHT22;25453;48.162;14.510;2024-02-26T09:14:46;6.60;71.60
39777;DHT22;25453;48.162;14.510;2024-02-26T09:17:14;6.70;71.70
39777;DHT22;25453;48.162;14.510;2024-02-26T09:19:41;6.70;71.80
39777;DHT22;25453;48.162;14.510;2024-02-26T09:22:10;6.80;71.70
39777;DHT22;25453;48.162;14.510;2024-02-26T09:24:39;6.80;71.50
39777;DHT22;25453;48.162;14.510;2024-02-26T09:27:06;6.80;71.80
39777;DHT22;25453;48.162;14.510;2024-02-26T09:29:35;6.80;71.80
39777;DHT22;25453;48.162;14.510;2024-02-26T09:32:03;6.90;72.10
39777;DHT22;25453;48.162;14.510;2024-02-26T09:34:30;6.90;72.30
39777;DHT22;25453;48.162;14.510;2024-02-26T09:36:57;7.10;72.70
39777;DHT22;25453;48.162;14.510;2024-02-26T09:39:38;7.30;73.30
39777;DHT22;25453;48.162;14.510;2024-02-26T09:42:05;7.60;73.70
39777;DHT22;25453;48.162;14.510;2024-02-26T09:44:40;7.90;73.60
39777;DHT22;25453;48.162;14.510;2024-02-26T09:47:11;8.30;73.30
39777;DHT22;25453;48.162;14.510;2024-02-26T09:49:40;8.50;72.70
39777;DHT22;25453;48.162;14.510;2024-02-26T09:52:09;8.70;72.20
39777;DHT22;25453;48.162;14.510;2024-02-26T09:54:37;8.90;72.20
39777;DHT22;25453;48.162;14.510;2024-02-26T09:57:05;9.20;72.70
39777;DHT22;25453;48.162;14.510;2024-02-26T09:59:42;9.50;72.70
39777;DHT22;25453;48.162;14.510;2024-02-26T10:02:14;9.90;72.20
39777;DHT22;25453;48.162;14.510;2024-02-26T10:04:42;10.10;70.80
39777;DHT22;25453;48.162;14.510;2024-02-26T10:07:15;10.20;69.60
39777;DHT22;25453;48.162;14.510;2024-02-26T10:09:43;10.20;69.00
39777;DHT22;25453;48.162;14.510;2024-02-26T10:12:11;10.20;69.10
39777;DHT22;25453;48.162;14.510;2024-02-26T10:14:43;10.30;68.70
39777;DHT22;25453;48.162;14.510;2024-02-26T10:17:10;10.30;68.20
39777;DHT22;25453;48.162;14.510;2024-02-26T10:19:38;10.30;67.80
39777;DHT22;25453;48.162;14.510;2024-02-26T10:22:06;10.20;67.80
39777;DHT22;25453;48.162;14.510;2024-02-26T10:24:33;10.20;67.70
39777;DHT22;25453;48.162;14.510;2024-02-26T10:27:02;10.20;67.80
39777;DHT22;25453;48.162;14.510;2024-02-26T10:29:31;10.20;68.30
39777;DHT22;25453;48.162;14.510;2024-02-26T10:31:58;10.30;68.60
39777;DHT22;25453;48.162;14.510;2024-02-26T10:34:26;10.50;68.50
39777;DHT22;25453;48.162;14.510;2024-02-26T10:36:55;10.60;68.10
39777;DHT22;25453;48.162;14.510;2024-02-26T10:39:23;10.60;67.60
39777;DHT22;25453;48.162;14.510;2024-02-26T10:41:50;10.60;67.30
39777;DHT22;25453;48.162;14.510;2024-02-26T10:44:17;10.50;67.10
39777;DHT22;25453;48.162;14.510;2024-02-26T10:46:47;10.40;67.00
39777;DHT22;25453;48.162;14.510;2024-02-26T10:49:17;10.30;67.00
39777;DHT22;25453;48.162;14.510;2024-02-26T10:51:55;10.20;67.10
39777;DHT22;25453;48.162;14.510;2024-02-26T10:54:26;10.20;67.40
39777;DHT22;25453;48.162;14.510;2024-02-26T10:56:56;10.10;67.80
39777;DHT22;25453;48.162;14.510;2024-02-26T10:59:25;10.20;68.40
39777;DHT22;25453;48.162;14.510;2024-02-26T11:01:53;10.30;68.70
39777;DHT22;25453;48.162;14.510;2024-02-26T11:04:23;10.40;68.70
39777;DHT22;25453;48.162;14.510;2024-02-26T11:06:54;10.50;68.50
39777;DHT22;25453;48.162;14.510;2024-02-26T11:09:23;10.50;68.20
39777;DHT22;25453;48.162;14.510;2024-02-26T11:11:52;10.50;68.00
39777;DHT22;25453;48.162;14.510;2024-02-26T11:14:23;10.50;67.90
39777;DHT22;25453;48.162;14.510;2024-02-26T11:16:55;10.50;67.90
39777;DHT22;25453;48.162;14.510;2024-02-26T11:19:24;10.50;67.80
39777;DHT22;25453;48.162;14.510;2024-02-26T11:21:52;10.40;67.80
39777;DHT22;25453;48.162;14.510;2024-02-26T11:24:20;10.40;67.80
39777;DHT22;25453;48.162;14.510;2024-02-26T11:26:50;10.30;67.90
39777;DHT22;25453;48.162;14.510;2024-02-26T11:29:23;10.30;68.10
39777;DHT22;25453;48.162;14.510;2024-02-26T11:31:52;10.40;68.50
39777;DHT22;25453;48.162;14.510;2024-02-26T11:34:20;10.50;68.60
39777;DHT22;25453;48.162;14.510;2024-02-26T11:36:47;10.60;68.60
39777;DHT22;25453;48.162;14.510;2024-02-26T11:39:16;10.70;68.50
39777;DHT22;25453;48.162;14.510;2024-02-26T11:41:44;10.80;68.00
39777;DHT22;25453;48.162;14.510;2024-02-26T11:44:11;10.90;67.80
39777;DHT22;25453;48.162;14.510;2024-02-26T11:46:42;10.90;67.60
39777;DHT22;25453;48.162;14.510;2024-02-26T11:49:29;10.80;67.40
39777;DHT22;25453;48.162;14.510;2024-02-26T11:51:58;10.80;67.60
39777;DHT22;25453;48.162;14.510;2024-02-26T11:54:57;10.80;67.60
39777;DHT22;25453;48.162;14.510;2024-02-26T11:57:40;10.90;67.80
39777;DHT22;25453;48.162;14.510;2024-02-26T12:00:14;10.90;67.70
39777;DHT22;25453;48.162;14.510;2024-02-26T12:02:45;10.90;67.50
39777;DHT22;25453;48.162;14.510;2024-02-26T12:05:16;10.90;67.40
39777;DHT22;25453;48.162;14.510;2024-02-26T12:07:49;10.90;67.30
39777;DHT22;25453;48.162;14.510;2024-02-26T12:10:27;10.90;67.10
39777;DHT22;25453;48.162;14.510;2024-02-26T12:15:32;10.70;67.10
39777;DHT22;25453;48.162;14.510;2024-02-26T12:18:02;10.70;67.10
39777;DHT22;25453;48.162;14.510;2024-02-26T12:20:30;10.60;66.90
39777;DHT22;25453;48.162;14.510;2024-02-26T12:22:58;10.60;67.00
39777;DHT22;25453;48.162;14.510;2024-02-26T12:25:28;10.60;67.10
39777;DHT22;25453;48.162;14.510;2024-02-26T12:27:55;10.60;67.20
39777;DHT22;25453;48.162;14.510;2024-02-26T12:30:23;10.60;67.30
39777;DHT22;25453;48.162;14.510;2024-02-26T12:32:52;10.60;67.30
39777;DHT22;25453;48.162;14.510;2024-02-26T12:35:24;10.60;67.40
39777;DHT22;25453;48.162;14.510;2024-02-26T12:37:53;10.50;67.20
39777;DHT22;25453;48.162;14.510;2024-02-26T12:40:21;10.50;67.30
39777;DHT22;25453;48.162;14.510;2024-02-26T12:42:48;10.40;67.30
39777;DHT22;25453;48.162;14.510;2024-02-26T12:45:16;10.40;67.40
39777;DHT22;25453;48.162;14.510;2024-02-26T12:47:45;10.40;67.50
39777;DHT22;25453;48.162;14.510;2024-02-26T12:50:18;10.40;67.60
39777;DHT22;25453;48.162;14.510;2024-02-26T12:52:47;10.40;67.70
39777;DHT22;25453;48.162;14.510;2024-02-26T12:55:16;10.40;67.90
39777;DHT22;25453;48.162;14.510;2024-02-26T12:57:44;10.40;68.00
39777;DHT22;25453;48.162;14.510;2024-02-26T13:00:17;10.40;68.20
39777;DHT22;25453;48.162;14.510;2024-02-26T13:02:45;10.40;68.30
39777;DHT22;25453;48.162;14.510;2024-02-26T13:05:14;10.40;68.30
39777;DHT22;25453;48.162;14.510;2024-02-26T13:07:43;10.40;68.50
39777;DHT22;25453;48.162;14.510;2024-02-26T13:10:11;10.40;68.50
39777;DHT22;25453;48.162;14.510;2024-02-26T13:12:45;10.40;68.60
39777;DHT22;25453;48.162;14.510;2024-02-26T13:15:21;10.40;68.70
39777;DHT22;25453;48.162;14.510;2024-02-26T13:17:49;10.40;68.90
39777;DHT22;25453;48.162;14.510;2024-02-26T13:20:28;10.40;68.90
39777;DHT22;25453;48.162;14.510;2024-02-26T13:23:03;10.40;69.00
39777;DHT22;25453;48.162;14.510;2024-02-26T13:25:33;10.40;69.10
39777;DHT22;25453;48.162;14.510;2024-02-26T13:28:08;10.40;69.10
39777;DHT22;25453;48.162;14.510;2024-02-26T13:30:38;10.40;69.30
39777;DHT22;25453;48.162;14.510;2024-02-26T13:33:13;10.40;69.40
39777;DHT22;25453;48.162;14.510;2024-02-26T13:35:40;10.40;69.50
39777;DHT22;25453;48.162;14.510;2024-02-26T13:38:08;10.40;69.50
39777;DHT22;25453;48.162;14.510;2024-02-26T13:40:37;10.40;69.60
39777;DHT22;25453;48.162;14.510;2024-02-26T13:43:04;10.40;69.70
39777;DHT22;25453;48.162;14.510;2024-02-26T13:45:34;10.40;69.90
39777;DHT22;25453;48.162;14.510;2024-02-26T13:48:03;10.40;70.00
39777;DHT22;25453;48.162;14.510;2024-02-26T13:50:32;10.40;70.00
39777;DHT22;25453;48.162;14.510;2024-02-26T13:53:00;10.40;70.10
39777;DHT22;25453;48.162;14.510;2024-02-26T13:55:27;10.50;70.20
39777;DHT22;25453;48.162;14.510;2024-02-26T13:57:57;10.50;70.30
39777;DHT22;25453;48.162;14.510;2024-02-26T14:00:25;10.60;70.40
39777;DHT22;25453;48.162;14.510;2024-02-26T14:02:52;10.60;70.40
39777;DHT22;25453;48.162;14.510;2024-02-26T14:05:22;10.60;70.50
39777;DHT22;25453;48.162;14.510;2024-02-26T14:07:49;10.70;70.60
39777;DHT22;25453;48.162;14.510;2024-02-26T14:10:19;10.70;70.60
39777;DHT22;25453;48.162;14.510;2024-02-26T14:12:46;10.70;70.60
39777;DHT22;25453;48.162;14.510;2024-02-26T14:15:15;10.70;70.70
39777;DHT22;25453;48.162;14.510;2024-02-26T14:17:42;10.80;70.70
39777;DHT22;25453;48.162;14.510;2024-02-26T14:20:10;10.80;70.70
39777;DHT22;25453;48.162;14.510;2024-02-26T14:22:38;10.80;70.80
39777;DHT22;25453;48.162;14.510;2024-02-26T14:25:05;10.90;70.70
39777;DHT22;25453;48.162;14.510;2024-02-26T14:27:32;10.80;70.70
39777;DHT22;25453;48.162;14.510;2024-02-26T14:30:00;10.90;70.80
39777;DHT22;25453;48.162;14.510;2024-02-26T14:32:27;10.90;70.80
39777;DHT22;25453;48.162;14.510;2024-02-26T14:34:56;10.90;70.80
39777;DHT22;25453;48.162;14.510;2024-02-26T14:37:23;10.90;70.80
39777;DHT22;25453;48.162;14.510;2024-02-26T14:39:50;10.90;70.70
39777;DHT22;25453;48.162;14.510;2024-02-26T14:42:19;10.90;70.70
39777;DHT22;25453;48.162;14.510;2024-02-26T14:44:46;10.90;70.80
39777;DHT22;25453;48.162;14.510;2024-02-26T14:47:14;10.90;70.90
39777;DHT22;25453;48.162;14.510;2024-02-26T14:49:42;10.90;70.90
39777;DHT22;25453;48.162;14.510;2024-02-26T14:52:10;10.90;71.00
39777;DHT22;25453;48.162;14.510;2024-02-26T14:54:37;10.80;71.00
39777;DHT22;25453;48.162;14.510;2024-02-26T14:57:07;10.80;71.10
39777;DHT22;25453;48.162;14.510;2024-02-26T14:59:34;10.80;71.10
39777;DHT22;25453;48.162;14.510;2024-02-26T15:02:04;10.80;71.20
39777;DHT22;25453;48.162;14.510;2024-02-26T15:04:31;10.80;71.30
39777;DHT22;25453;48.162;14.510;2024-02-26T15:06:58;10.80;71.20
39777;DHT22;25453;48.162;14.510;2024-02-26T15:09:25;10.80;71.30
39777;DHT22;25453;48.162;14.510;2024-02-26T15:11:52;10.80;71.30
39777;DHT22;25453;48.162;14.510;2024-02-26T15:14:20;10.80;71.30
39777;DHT22;25453;48.162;14.510;2024-02-26T15:16:47;10.80;71.20
39777;DHT22;25453;48.162;14.510;2024-02-26T15:19:15;10.70;71.20
39777;DHT22;25453;48.162;14.510;2024-02-26T15:21:47;10.70;71.20
39777;DHT22;25453;48.162;14.510;2024-02-26T15:24:14;10.60;71.30
39777;DHT22;25453;48.162;14.510;2024-02-26T15:26:45;10.60;71.30
39777;DHT22;25453;48.162;14.510;2024-02-26T15:29:13;10.60;71.50
39777;DHT22;25453;48.162;14.510;2024-02-26T15:31:40;10.50;71.50
39777;DHT22;25453;48.162;14.510;2024-02-26T15:34:07;10.50;71.60